Time;durP1;ratioP1;P1;durP2;ratioP2;P2;SDS_P1;SDS_P2;PMS_P1;PMS_P2;Temp;Humidity;BMP_temperature;BMP_pressure;BME280_temperature;BME280_humidity;BME280_pressure;Samples;Min_cycle;Max_cycle;Signal;HPM_P1;HPM_P2
2023/08/21 00:00:51;;;;;;;6.55;4.60;;;;;;;21.34;66.87;94914.63;4991567;28;20201;-76
2023/08/21 00:03:18;;;;;;;7.93;4.85;;;;;;;21.34;67.19;94913.84;4991593;28;20220;-76
2023/08/21 00:05:46;;;;;;;9.02;5.22;;;;;;;21.32;66.65;94922.50;4992151;28;20228;-76
2023/08/21 00:08:13;;;;;;;9.32;5.25;;;;;;;21.24;67.87;94918.16;4991797;28;20224;-76
2023/08/21 00:10:40;;;;;;;6.00;4.40;;;;;;;21.18;68.31;94914.94;4991862;28;20209;-76
2023/08/21 00:13:08;;;;;;;7.47;4.78;;;;;;;21.16;68.03;94917.31;4991997;28;20296;-76
2023/08/21 00:15:35;;;;;;;14.52;5.90;;;;;;;21.16;68.53;94909.03;4991560;28;20221;-76
2023/08/21 00:18:04;;;;;;;8.48;5.32;;;;;;;21.01;68.41;94910.16;4991984;28;20268;-76
2023/08/21 00:20:30;;;;;;;9.45;4.90;;;;;;;20.97;68.06;94922.34;4991187;28;20220;-76
2023/08/21 00:22:57;;;;;;;8.27;4.90;;;;;;;20.98;68.11;94908.19;4991952;28;20336;-76
2023/08/21 00:25:24;;;;;;;6.88;4.63;;;;;;;20.86;68.09;94914.03;4991501;28;20582;-76
2023/08/21 00:27:51;;;;;;;7.00;5.35;;;;;;;20.86;67.72;94916.78;4992151;28;20308;-76
2023/08/21 00:30:18;;;;;;;9.65;5.38;;;;;;;20.87;69.07;94915.59;4990851;28;20616;-76
2023/08/21 00:32:45;;;;;;;6.70;5.63;;;;;;;20.81;69.34;94908.88;4991208;28;20209;-76
2023/08/21 00:35:13;;;;;;;6.22;4.88;;;;;;;20.78;68.63;94915.94;4991194;28;20221;-76
2023/08/21 00:37:40;;;;;;;7.40;4.63;;;;;;;20.88;68.53;94908.94;4991734;28;20217;-76
2023/08/21 00:40:07;;;;;;;8.35;5.47;;;;;;;20.90;69.42;94912.09;4991203;28;20221;-76
2023/08/21 00:42:34;;;;;;;8.00;4.82;;;;;;;20.87;68.77;94929.38;4990969;28;20233;-76
2023/08/21 00:45:01;;;;;;;9.43;5.35;;;;;;;20.85;69.40;94926.22;4991687;28;20617;-76
2023/08/21 00:47:28;;;;;;;6.82;4.68;;;;;;;20.79;68.86;94922.25;4991009;28;20285;-76
2023/08/21 00:49:55;;;;;;;7.57;4.95;;;;;;;20.82;68.99;94927.78;4991269;28;20213;-76
2023/08/21 00:52:23;;;;;;;8.32;4.82;;;;;;;20.77;69.55;94935.63;4991195;28;20209;-76
2023/08/21 00:54:53;;;;;;;6.90;4.70;;;;;;;20.83;68.12;94929.34;4991474;28;20217;-76
2023/08/21 00:57:21;;;;;;;6.97;4.60;;;;;;;20.83;68.95;94934.06;4991293;28;20578;-77
2023/08/21 00:59:48;;;;;;;5.95;4.70;;;;;;;20.84;69.33;94938.41;4991981;28;20313;-75
2023/08/21 01:02:15;;;;;;;11.18;4.78;;;;;;;20.78;69.52;94926.16;4990973;28;20225;-76
2023/08/21 01:04:42;;;;;;;8.00;5.20;;;;;;;20.77;70.36;94930.13;4991341;28;20327;-76
2023/08/21 01:07:10;;;;;;;6.55;4.97;;;;;;;20.73;70.72;94937.56;4991557;28;20217;-76
2023/08/21 01:09:50;;;;;;;6.35;4.65;;;;;;;20.65;70.07;94933.16;4991897;28;20206;-76
2023/08/21 01:12:24;;;;;;;5.90;4.93;;;;;;;20.64;70.88;94926.88;4991273;28;20205;-76
2023/08/21 01:14:59;;;;;;;6.63;5.05;;;;;;;20.56;71.74;94937.06;4990920;28;20241;-76
2023/08/21 01:17:27;;;;;;;11.60;4.93;;;;;;;20.53;70.49;94932.31;4991697;28;20209;-76
2023/08/21 01:19:55;;;;;;;6.97;5.00;;;;;;;20.56;71.58;94931.56;4991280;28;20264;-76
2023/08/21 01:22:26;;;;;;;6.90;4.90;;;;;;;20.66;71.65;94935.53;4991249;28;20579;-75
2023/08/21 01:24:55;;;;;;;6.57;4.88;;;;;;;20.56;71.22;94926.06;4990962;28;20202;-76
2023/08/21 01:27:22;;;;;;;8.82;5.30;;;;;;;20.55;71.20;94929.97;4990630;28;20213;-76
2023/08/21 01:29:49;;;;;;;6.35;4.15;;;;;;;20.41;71.11;94935.38;4990315;28;20221;-76
2023/08/21 01:32:22;;;;;;;7.20;5.00;;;;;;;20.45;71.77;94932.66;4991054;28;20617;-76
2023/08/21 01:35:01;;;;;;;9.02;4.78;;;;;;;20.41;72.01;94931.84;4990943;28;20210;-76
2023/08/21 01:37:29;;;;;;;7.47;4.28;;;;;;;20.35;71.03;94936.91;4992214;28;20221;-76
2023/08/21 01:39:59;;;;;;;6.38;4.55;;;;;;;20.28;70.16;94931.34;4994851;28;20213;-76
2023/08/21 01:42:26;;;;;;;9.75;4.53;;;;;;;20.31;69.99;94933.31;4994461;28;20217;-76
2023/08/21 01:44:53;;;;;;;6.57;4.88;;;;;;;20.32;71.79;94932.16;4994617;28;20206;-77
2023/08/21 01:47:19;;;;;;;8.52;4.72;;;;;;;20.24;70.70;94936.00;4994663;28;20205;-76
2023/08/21 01:49:46;;;;;;;10.77;4.43;;;;;;;20.31;71.64;94941.59;4994569;28;20213;-76
2023/08/21 01:52:22;;;;;;;7.30;5.15;;;;;;;20.22;71.72;94932.88;4994054;28;20201;-76
2023/08/21 01:54:52;;;;;;;6.95;4.40;;;;;;;20.26;72.28;94933.66;4993942;28;20206;-75
2023/08/21 01:57:20;;;;;;;7.97;4.82;;;;;;;20.27;72.00;94927.00;4993840;28;20289;-76
2023/08/21 01:59:47;;;;;;;8.15;4.88;;;;;;;20.24;72.52;94933.25;4994320;28;20210;-76
2023/08/21 02:02:17;;;;;;;5.30;4.38;;;;;;;20.12;72.68;94925.31;4993988;28;20233;-76
2023/08/21 02:04:43;;;;;;;6.18;4.85;;;;;;;20.02;73.82;94928.78;4993925;28;20217;-76
2023/08/21 02:07:10;;;;;;;7.97;4.82;;;;;;;19.97;73.99;94931.84;4993953;28;20302;-76
2023/08/21 02:09:37;;;;;;;6.25;4.78;;;;;;;19.95;73.08;94926.75;4994075;28;20209;-76
2023/08/21 02:12:04;;;;;;;6.28;4.40;;;;;;;19.83;73.85;94927.81;4994039;28;20264;-76
2023/08/21 02:14:32;;;;;;;7.68;4.75;;;;;;;19.92;71.88;94929.47;4993397;28;20237;-76
2023/08/21 02:16:59;;;;;;;5.88;3.95;;;;;;;19.96;72.95;94927.53;4993484;28;20218;-76
2023/08/21 02:19:26;;;;;;;7.40;4.57;;;;;;;19.93;73.27;94920.06;4993575;28;20666;-76
2023/08/21 02:21:53;;;;;;;8.48;4.75;;;;;;;19.75;73.94;94926.19;4994736;28;20280;-76
2023/08/21 02:24:19;;;;;;;6.68;4.45;;;;;;;19.81;73.04;94921.13;4993544;28;20213;-76
2023/08/21 02:26:46;;;;;;;8.75;5.18;;;;;;;19.78;73.41;94921.88;4993955;28;20210;-76
2023/08/21 02:29:13;;;;;;;11.40;4.43;;;;;;;19.80;73.63;94922.31;4993582;28;20237;-76
2023/08/21 02:31:41;;;;;;;10.55;5.00;;;;;;;19.72;74.86;94926.94;4993417;28;20210;-76
2023/08/21 02:34:08;;;;;;;5.90;4.82;;;;;;;19.81;74.35;94924.69;4993366;28;20206;-76
2023/08/21 02:36:35;;;;;;;6.13;4.55;;;;;;;19.74;74.27;94919.09;4992927;28;20210;-76
2023/08/21 02:39:03;;;;;;;8.23;5.47;;;;;;;19.70;74.26;94928.47;4993483;28;20217;-76
2023/08/21 02:41:30;;;;;;;7.50;5.22;;;;;;;19.72;74.40;94921.44;4993171;28;20241;-76
2023/08/21 02:43:57;;;;;;;8.65;5.10;;;;;;;19.71;73.96;94930.06;4993507;28;20225;-76
2023/08/21 02:46:26;;;;;;;6.00;4.57;;;;;;;19.63;74.44;94923.72;4993187;28;20220;-76
2023/08/21 02:48:54;;;;;;;7.80;5.22;;;;;;;19.61;74.39;94928.78;4993113;28;20213;-76
2023/08/21 02:51:21;;;;;;;6.80;4.93;;;;;;;19.61;75.43;94920.53;4992835;28;20217;-76
2023/08/21 02:53:47;;;;;;;11.02;5.43;;;;;;;19.64;75.32;94930.78;4992832;28;20216;-76
2023/08/21 02:56:14;;;;;;;8.55;5.50;;;;;;;19.56;75.15;94923.63;4992611;28;20221;-76
2023/08/21 02:58:41;;;;;;;9.57;5.15;;;;;;;19.50;75.79;94930.66;4987642;28;20206;-76
2023/08/21 03:01:08;;;;;;;6.57;4.70;;;;;;;19.48;75.43;94928.25;4993144;28;20214;-76
2023/08/21 03:03:35;;;;;;;5.93;4.45;;;;;;;19.47;75.77;94928.63;4993046;28;20590;-76
2023/08/21 03:06:04;;;;;;;7.55;5.13;;;;;;;19.55;75.69;94927.53;4992232;28;20300;-76
2023/08/21 03:08:31;;;;;;;9.63;5.60;;;;;;;19.59;76.35;94933.09;4993086;28;20579;-76
2023/08/21 03:10:57;;;;;;;8.13;5.35;;;;;;;19.63;76.95;94931.97;4993459;28;20616;-76
2023/08/21 03:13:24;;;;;;;7.93;5.72;;;;;;;19.62;77.19;94938.63;4992538;28;20253;-76
2023/08/21 03:15:51;;;;;;;8.05;5.50;;;;;;;19.43;76.60;94936.03;4992460;28;20244;-76
2023/08/21 03:18:18;;;;;;;8.50;5.50;;;;;;;19.37;76.75;94938.34;4992761;28;20300;-76
2023/08/21 03:20:45;;;;;;;7.70;5.30;;;;;;;19.25;77.39;94943.28;4992576;28;20209;-75
2023/08/21 03:23:14;;;;;;;8.38;5.60;;;;;;;19.16;76.65;94944.38;4992990;28;20490;-76
2023/08/21 03:25:41;;;;;;;7.45;5.55;;;;;;;19.13;78.04;94945.09;4992411;28;20256;-75
2023/08/21 03:28:08;;;;;;;8.05;5.63;;;;;;;19.31;77.93;94950.81;4992829;28;20221;-76
2023/08/21 03:30:36;;;;;;;8.60;4.97;;;;;;;19.33;76.82;94953.19;4992547;28;20213;-75
2023/08/21 03:33:03;;;;;;;8.65;5.50;;;;;;;19.37;75.89;94951.28;4993143;28;20264;-76
2023/08/21 03:35:31;;;;;;;7.07;4.95;;;;;;;19.38;76.75;94950.91;4992449;28;20214;-76
2023/08/21 03:37:57;;;;;;;11.35;5.43;;;;;;;19.38;75.99;94950.91;4992832;28;20315;-76
2023/08/21 03:40:27;;;;;;;7.47;5.20;;;;;;;19.38;76.77;94952.88;4992531;28;20221;-76
2023/08/21 03:42:56;;;;;;;10.10;5.45;;;;;;;19.37;77.08;94943.81;4992560;28;20244;-76
2023/08/21 03:45:25;;;;;;;6.75;5.07;;;;;;;19.42;76.75;94957.22;4992028;28;20218;-76
2023/08/21 03:47:52;;;;;;;9.10;5.00;;;;;;;19.48;76.33;94941.97;4992186;28;20225;-76
2023/08/21 03:50:19;;;;;;;10.63;5.68;;;;;;;19.58;76.08;94948.78;4991990;28;20213;-76
2023/08/21 03:52:46;;;;;;;7.63;5.05;;;;;;;19.70;75.48;94945.75;4992178;28;20237;-76
2023/08/21 03:55:13;;;;;;;7.35;5.63;;;;;;;19.92;75.91;94948.72;4992786;28;20369;-76
2023/08/21 03:57:41;;;;;;;7.35;5.47;;;;;;;20.12;75.56;94950.06;4992616;28;20218;-76
2023/08/21 04:00:09;;;;;;;9.90;5.95;;;;;;;20.56;74.46;94948.06;4992115;28;20618;-76
2023/08/21 04:02:36;;;;;;;6.85;5.13;;;;;;;21.03;72.57;94946.38;4992318;28;20709;-77
2023/08/21 04:05:03;;;;;;;11.85;5.63;;;;;;;21.58;70.49;94935.97;4992509;28;20213;-76
2023/08/21 04:07:30;;;;;;;10.25;5.93;;;;;;;22.17;68.52;94938.44;4992489;28;20213;-75
2023/08/21 04:09:56;;;;;;;14.63;6.05;;;;;;;22.63;66.91;94936.44;4992346;28;20582;-76
2023/08/21 04:12:23;;;;;;;15.30;5.72;;;;;;;23.02;65.54;94938.34;4991824;28;20280;-76
2023/08/21 04:14:51;;;;;;;8.20;5.65;;;;;;;23.32;64.09;94940.59;4991349;28;20283;-76
2023/08/21 04:17:22;;;;;;;8.07;5.80;;;;;;;23.81;62.84;94944.31;4991096;28;20209;-76
2023/08/21 04:19:48;;;;;;;10.70;5.45;;;;;;;24.06;61.80;94942.97;4991707;28;20572;-76
2023/08/21 04:22:15;;;;;;;11.52;6.22;;;;;;;24.68;60.09;94942.09;4990543;28;20217;-76
2023/08/21 04:24:43;;;;;;;12.73;6.32;;;;;;;25.32;58.05;94941.41;4991372;28;20238;-76
2023/08/21 04:27:10;;;;;;;8.70;6.32;;;;;;;25.31;57.97;94948.16;4991362;28;20210;-77
2023/08/21 04:29:37;;;;;;;10.95;6.55;;;;;;;26.13;55.62;94934.00;4991315;28;20617;-77
2023/08/21 04:32:06;;;;;;;10.63;7.13;;;;;;;26.33;54.55;94944.44;4991676;28;20221;-76
2023/08/21 04:34:33;;;;;;;10.98;6.05;;;;;;;26.31;54.35;94932.97;4992015;28;20642;-76
2023/08/21 04:37:00;;;;;;;15.38;5.60;;;;;;;26.76;52.76;94947.28;4990904;28;20206;-76
2023/08/21 04:39:27;;;;;;;8.35;6.93;;;;;;;27.66;50.42;94938.84;4991207;28;20217;-77
2023/08/21 04:41:54;;;;;;;10.32;6.80;;;;;;;28.09;49.82;94936.69;4991794;28;20566;-77
2023/08/21 04:44:21;;;;;;;11.52;7.22;;;;;;;28.26;49.08;94940.31;4991167;28;20232;-77
2023/08/21 04:46:50;;;;;;;14.30;7.53;;;;;;;28.59;47.54;94946.66;4991430;28;20213;-77
2023/08/21 04:49:18;;;;;;;9.85;6.50;;;;;;;28.62;47.23;94940.22;4991246;28;20284;-76
2023/08/21 04:51:45;;;;;;;8.68;6.15;;;;;;;28.93;45.96;94947.00;4991239;28;20213;-77
2023/08/21 04:54:12;;;;;;;10.10;6.65;;;;;;;29.91;43.45;94949.47;4991296;28;20205;-77
2023/08/21 04:56:39;;;;;;;7.60;6.75;;;;;;;30.40;42.76;94936.78;4990709;28;20217;-77
2023/08/21 04:59:05;;;;;;;9.98;6.70;;;;;;;30.73;42.57;94936.53;4973614;28;20209;-77
2023/08/21 05:01:32;;;;;;;7.30;6.32;;;;;;;30.51;42.13;94944.81;4990999;28;20659;-76
2023/08/21 05:03:59;;;;;;;18.92;6.85;;;;;;;30.90;41.44;94951.16;4990996;28;20237;-77
2023/08/21 05:06:27;;;;;;;11.55;6.20;;;;;;;31.67;40.62;94958.88;4990886;28;20217;-77
2023/08/21 05:08:54;;;;;;;11.07;6.57;;;;;;;31.10;41.12;94954.47;4990353;28;20249;-77
2023/08/21 05:11:21;;;;;;;9.82;6.32;;;;;;;31.18;40.71;94957.81;4990959;28;20563;-77
2023/08/21 05:13:48;;;;;;;9.98;6.55;;;;;;;31.28;40.02;94953.88;4994499;28;20617;-77
2023/08/21 05:16:14;;;;;;;10.55;6.97;;;;;;;31.57;39.35;94964.84;4995891;28;20563;-77
2023/08/21 05:18:42;;;;;;;13.98;7.70;;;;;;;30.96;40.30;94975.31;4995397;28;20214;-77
2023/08/21 05:21:12;;;;;;;12.35;7.30;;;;;;;31.71;39.84;94969.91;4994959;28;20276;-77
2023/08/21 05:23:41;;;;;;;8.68;6.60;;;;;;;31.79;39.55;94974.81;4994218;28;20225;-77
2023/08/21 05:26:08;;;;;;;10.63;7.05;;;;;;;32.78;37.81;94972.22;4994900;28;20622;-76
2023/08/21 05:28:34;;;;;;;11.63;6.57;;;;;;;32.96;38.26;94966.63;4994812;28;20221;-77
2023/08/21 05:31:01;;;;;;;10.27;7.43;;;;;;;33.11;37.45;94964.78;4994346;28;20209;-77
2023/08/21 05:33:28;;;;;;;10.85;7.88;;;;;;;33.92;36.36;94967.31;4995073;28;20617;-77
2023/08/21 05:35:57;;;;;;;10.82;7.75;;;;;;;33.95;35.70;94960.75;4994975;28;20217;-76
2023/08/21 05:38:24;;;;;;;9.27;6.93;;;;;;;34.38;35.93;94971.59;4994200;28;20218;-77
2023/08/21 05:40:52;;;;;;;10.23;7.45;;;;;;;33.88;36.31;94967.50;4994442;28;20210;-77
2023/08/21 05:43:19;;;;;;;12.90;7.47;;;;;;;33.96;35.91;94957.47;4994318;28;20229;-77
2023/08/21 05:45:46;;;;;;;10.45;7.13;;;;;;;34.48;35.71;94961.09;4994783;28;20580;-77
2023/08/21 05:48:12;;;;;;;17.67;7.40;;;;;;;34.87;34.74;94964.81;4994805;28;20213;-77
2023/08/21 05:50:39;;;;;;;11.02;7.85;;;;;;;35.85;33.20;94949.72;4994596;28;20224;-76
2023/08/21 05:53:06;;;;;;;14.63;7.38;;;;;;;35.98;33.21;94953.03;4994386;28;20264;-77
2023/08/21 05:55:33;;;;;;;15.98;7.63;;;;;;;35.54;33.56;94957.81;4993788;28;20618;-77
2023/08/21 05:58:01;;;;;;;13.05;7.80;;;;;;;36.56;32.28;94953.50;4994598;28;20209;-77
2023/08/21 06:00:28;;;;;;;9.90;7.60;;;;;;;35.86;33.23;94956.13;4993646;28;20205;-77
2023/08/21 06:02:55;;;;;;;19.63;8.15;;;;;;;35.79;33.08;94957.31;4994095;28;20205;-76
2023/08/21 06:05:22;;;;;;;16.23;7.95;;;;;;;36.02;33.10;94957.72;4993740;28;20873;-76
2023/08/21 06:07:49;;;;;;;20.67;7.63;;;;;;;36.11;32.89;94958.38;4994046;28;20220;-76
2023/08/21 06:10:16;;;;;;;16.17;7.45;;;;;;;35.60;33.15;94961.53;4993632;28;20217;-77
2023/08/21 06:12:42;;;;;;;14.00;7.80;;;;;;;35.47;33.31;94963.81;4994032;28;20563;-76
2023/08/21 06:15:11;;;;;;;13.10;7.25;;;;;;;35.71;33.45;94967.38;4993770;28;20205;-76
2023/08/21 06:17:39;;;;;;;17.88;8.10;;;;;;;35.89;32.65;94966.47;4994523;28;20209;-76
2023/08/21 06:20:08;;;;;;;10.52;7.07;;;;;;;35.01;33.82;94972.56;4994030;28;20217;-77
2023/08/21 06:22:35;;;;;;;12.25;7.10;;;;;;;35.37;33.28;94965.94;4993483;28;20213;-77
2023/08/21 06:25:02;;;;;;;12.30;7.10;;;;;;;35.70;32.90;94965.81;4993918;28;20744;-77
2023/08/21 06:27:29;;;;;;;11.27;6.85;;;;;;;36.93;30.91;94963.06;4993840;28;20582;-77
2023/08/21 06:29:56;;;;;;;10.13;6.43;;;;;;;36.50;31.47;94964.69;4994299;28;20246;-77
2023/08/21 06:32:24;;;;;;;13.45;7.00;;;;;;;36.27;32.21;94968.44;4994036;28;20216;-77
2023/08/21 06:34:51;;;;;;;13.75;6.55;;;;;;;35.61;31.80;94969.50;4993918;28;20300;-77
2023/08/21 06:37:18;;;;;;;11.75;6.50;;;;;;;35.93;32.04;94973.47;4994591;28;20205;-76
2023/08/21 06:39:45;;;;;;;9.80;6.07;;;;;;;36.31;31.06;94969.03;4993972;28;20216;-77
2023/08/21 06:42:13;;;;;;;14.07;6.10;;;;;;;36.91;30.27;94967.66;4993975;28;20213;-77
2023/08/21 06:44:40;;;;;;;14.07;6.07;;;;;;;37.12;29.98;94974.91;4993913;28;20288;-77
2023/08/21 06:47:07;;;;;;;8.75;6.35;;;;;;;36.92;30.81;94972.03;4994077;28;20260;-77
2023/08/21 06:49:36;;;;;;;8.82;5.95;;;;;;;36.54;31.61;94976.59;4993527;28;20301;-77
2023/08/21 06:52:03;;;;;;;8.27;6.05;;;;;;;37.00;30.24;94973.19;4993706;28;20213;-77
2023/08/21 06:54:32;;;;;;;8.80;5.45;;;;;;;35.97;31.21;94971.22;4993493;28;20201;-78
2023/08/21 06:56:59;;;;;;;8.18;5.15;;;;;;;36.33;30.67;94974.19;4993629;28;20221;-77
2023/08/21 06:59:26;;;;;;;15.30;5.75;;;;;;;35.05;31.69;94973.19;4993328;28;20213;-78
2023/08/21 07:01:54;;;;;;;6.18;4.88;;;;;;;34.59;32.29;94983.84;4993630;28;20209;-77
2023/08/21 07:04:21;;;;;;;8.05;4.88;;;;;;;35.63;30.83;94971.84;4993716;28;20322;-77
2023/08/21 07:06:49;;;;;;;7.35;4.95;;;;;;;35.72;31.42;94968.16;4993975;28;20260;-77
2023/08/21 07:09:16;;;;;;;6.15;5.30;;;;;;;34.45;32.26;94988.13;4993209;28;20235;-78
2023/08/21 07:11:42;;;;;;;10.20;5.15;;;;;;;35.36;30.97;94972.06;4991837;28;20299;-78
2023/08/21 07:14:09;;;;;;;7.80;6.05;;;;;;;35.65;31.05;94972.13;4993270;28;20241;-76
2023/08/21 07:16:36;;;;;;;6.47;5.25;;;;;;;35.23;32.11;94978.69;4993344;28;20217;-76
2023/08/21 07:19:03;;;;;;;9.35;5.30;;;;;;;36.11;30.83;94977.34;4993161;28;20264;-76
2023/08/21 07:21:29;;;;;;;6.68;5.57;;;;;;;36.37;30.33;94972.69;4992465;28;20248;-76
2023/08/21 07:23:58;;;;;;;8.05;4.95;;;;;;;36.90;29.37;94968.94;4992961;28;20691;-77
2023/08/21 07:26:24;;;;;;;7.80;5.15;;;;;;;35.94;30.04;94969.41;4992539;28;20228;-76
2023/08/21 07:28:52;;;;;;;10.63;5.97;;;;;;;36.67;29.67;94956.50;4993452;28;20238;-78
2023/08/21 07:31:19;;;;;;;12.55;5.47;;;;;;;37.51;28.26;94966.94;4993437;28;20224;-78
2023/08/21 07:33:46;;;;;;;8.98;5.72;;;;;;;36.61;30.36;94964.91;4992574;28;20205;-78
2023/08/21 07:36:16;;;;;;;7.88;5.30;;;;;;;35.70;30.77;94977.09;4991854;28;20753;-78
2023/08/21 07:38:43;;;;;;;12.80;5.75;;;;;;;35.35;31.65;94973.31;4992344;28;20209;-78
2023/08/21 07:41:13;;;;;;;8.20;5.20;;;;;;;35.83;31.05;94966.34;4992321;28;20221;-77
2023/08/21 07:43:42;;;;;;;12.60;5.80;;;;;;;35.51;31.58;94975.69;4991693;28;20233;-76
2023/08/21 07:46:15;;;;;;;13.73;5.05;;;;;;;34.80;31.87;94979.28;4992344;28;20214;-77
2023/08/21 07:48:42;;;;;;;5.90;4.88;;;;;;;33.82;33.03;94972.97;4992127;28;20205;-77
2023/08/21 07:51:09;;;;;;;7.00;4.75;;;;;;;33.70;33.17;94970.31;4992519;28;20632;-77
2023/08/21 07:53:37;;;;;;;8.93;4.88;;;;;;;33.83;33.24;94968.91;4991702;28;20693;-76
2023/08/21 07:56:04;;;;;;;10.77;4.90;;;;;;;34.15;32.73;94969.47;4991981;28;20264;-77
2023/08/21 07:58:33;;;;;;;9.52;4.80;;;;;;;34.83;32.68;94964.25;4991553;28;20305;-77
2023/08/21 08:01:01;;;;;;;8.73;5.07;;;;;;;34.31;32.86;94960.69;4992069;28;20213;-77
2023/08/21 08:03:28;;;;;;;10.20;5.25;;;;;;;35.28;31.65;94951.91;4991929;28;20220;-77
2023/08/21 08:05:54;;;;;;;9.27;5.30;;;;;;;34.84;31.96;94963.00;4991725;28;20213;-77
2023/08/21 08:08:21;;;;;;;7.88;5.13;;;;;;;34.33;32.42;94963.00;4991779;28;20224;-77
2023/08/21 08:10:48;;;;;;;8.65;5.32;;;;;;;33.91;33.71;94958.09;4992153;28;20216;-78
2023/08/21 08:13:15;;;;;;;14.45;5.68;;;;;;;34.28;32.87;94955.25;4992194;28;20583;-78
2023/08/21 08:15:43;;;;;;;8.45;5.38;;;;;;;34.02;33.72;94954.81;4991102;28;20213;-79
2023/08/21 08:18:13;;;;;;;7.07;5.43;;;;;;;33.48;34.00;94950.81;4991679;28;20209;-78
2023/08/21 08:20:40;;;;;;;6.25;5.53;;;;;;;32.86;34.93;94945.41;4991970;28;20214;-77
2023/08/21 08:23:07;;;;;;;8.82;4.95;;;;;;;32.86;35.03;94951.03;4992234;28;20528;-78
2023/08/21 08:25:34;;;;;;;7.15;5.57;;;;;;;32.38;34.98;94944.94;4991480;28;20586;-77
2023/08/21 08:28:01;;;;;;;7.03;5.18;;;;;;;32.43;35.03;94957.56;4991906;28;20263;-78
2023/08/21 08:30:28;;;;;;;6.20;4.85;;;;;;;33.00;33.72;94950.44;4991304;28;20580;-78
2023/08/21 08:32:57;;;;;;;6.40;4.72;;;;;;;33.91;33.27;94943.25;4992197;28;20637;-78
2023/08/21 08:35:24;;;;;;;7.25;4.80;;;;;;;33.84;33.57;94947.19;4990830;28;20205;-78
2023/08/21 08:37:51;;;;;;;7.47;4.90;;;;;;;33.96;33.24;94934.19;4991861;28;20213;-78
2023/08/21 08:40:18;;;;;;;8.88;5.32;;;;;;;34.04;33.07;94935.41;4991348;28;20670;-77
2023/08/21 08:42:44;;;;;;;9.68;4.90;;;;;;;34.80;31.59;94931.41;4991346;28;20224;-77
2023/08/21 08:45:14;;;;;;;8.75;4.97;;;;;;;34.38;32.72;94926.59;5000689;28;20572;-76
2023/08/21 08:47:41;;;;;;;7.93;4.82;;;;;;;34.24;32.54;94928.03;4994561;28;20212;-77
2023/08/21 08:50:10;;;;;;;7.38;5.00;;;;;;;34.37;32.05;94925.03;4991277;28;20217;-78
2023/08/21 08:52:40;;;;;;;7.55;4.82;;;;;;;34.24;32.53;94927.25;4991196;28;20252;-77
2023/08/21 08:55:08;;;;;;;9.73;5.15;;;;;;;34.32;32.42;94922.06;4991535;28;20237;-77
2023/08/21 08:57:35;;;;;;;7.32;4.85;;;;;;;34.35;31.95;94921.13;4997850;28;20228;-77
2023/08/21 09:00:03;;;;;;;11.52;5.00;;;;;;;34.62;32.30;94929.44;4991722;28;20264;-77
2023/08/21 09:02:29;;;;;;;8.57;4.80;;;;;;;34.02;32.76;94926.69;4991804;28;20686;-76
2023/08/21 09:04:56;;;;;;;8.20;5.00;;;;;;;33.63;32.23;94928.44;4991536;28;20555;-77
2023/08/21 09:07:24;;;;;;;8.77;4.75;;;;;;;33.55;32.76;94928.00;4991320;28;20217;-76
2023/08/21 09:09:52;;;;;;;7.35;4.70;;;;;;;32.49;33.64;94922.84;4991155;28;20213;-77
2023/08/21 09:12:20;;;;;;;5.15;4.50;;;;;;;31.88;33.86;94934.06;4992189;28;20288;-78
2023/08/21 09:14:47;;;;;;;8.55;4.72;;;;;;;32.13;33.83;94922.66;4991081;28;20341;-78
2023/08/21 09:17:14;;;;;;;9.80;5.05;;;;;;;32.23;34.25;94921.50;4992024;28;20210;-77
2023/08/21 09:19:41;;;;;;;7.65;4.68;;;;;;;31.93;34.37;94920.25;4991365;28;20220;-75
2023/08/21 09:22:10;;;;;;;9.68;5.15;;;;;;;32.54;34.57;94912.25;4991489;28;20202;-78
2023/08/21 09:24:38;;;;;;;11.63;4.95;;;;;;;33.06;33.85;94909.28;4990825;28;20348;-78
2023/08/21 09:27:05;;;;;;;6.93;4.85;;;;;;;32.94;32.76;94906.59;4991029;28;20209;-77
2023/08/21 09:29:42;;;;;;;6.80;4.47;;;;;;;32.87;32.68;94907.69;4990450;28;20206;-77
2023/08/21 09:32:09;;;;;;;8.50;4.93;;;;;;;32.63;32.99;94904.66;4990884;28;20201;-79
2023/08/21 09:34:37;;;;;;;8.43;4.85;;;;;;;32.92;33.14;94898.66;4990435;28;20280;-78
2023/08/21 09:37:07;;;;;;;9.25;4.38;;;;;;;32.51;32.82;94897.16;4991549;28;20221;-78
2023/08/21 09:39:35;;;;;;;5.20;4.30;;;;;;;32.35;33.06;94901.00;4990667;28;20300;-78
2023/08/21 09:42:06;;;;;;;7.78;4.93;;;;;;;32.86;32.49;94899.72;4990441;28;20611;-81
2023/08/21 09:44:38;;;;;;;5.53;4.10;;;;;;;33.36;32.08;94898.34;4990455;28;20229;-78
2023/08/21 09:47:09;;;;;;;6.90;4.50;;;;;;;32.10;33.78;94901.19;4990626;28;20257;-78
2023/08/21 09:49:37;;;;;;;6.28;4.13;;;;;;;32.41;33.23;94899.13;4991010;28;20214;-80
2023/08/21 09:52:05;;;;;;;8.00;4.28;;;;;;;32.18;33.26;94894.03;4991194;28;20650;-78
2023/08/21 09:54:35;;;;;;;6.53;4.53;;;;;;;32.35;33.11;94892.56;4990638;28;20611;-77
2023/08/21 09:57:05;;;;;;;5.78;4.55;;;;;;;32.46;33.59;94887.31;4991026;28;20205;-76
2023/08/21 09:59:32;;;;;;;8.02;4.72;;;;;;;33.21;32.29;94880.56;4993415;28;20202;-77
2023/08/21 10:02:00;;;;;;;6.85;4.63;;;;;;;33.53;32.38;94885.53;4994264;28;20278;-77
2023/08/21 10:04:30;;;;;;;5.45;4.45;;;;;;;34.15;31.58;94873.84;4994052;28;20609;-77
2023/08/21 10:06:59;;;;;;;8.55;5.32;;;;;;;33.66;31.61;94876.91;4994372;28;20300;-77
2023/08/21 10:09:26;;;;;;;5.63;4.35;;;;;;;33.30;31.90;94877.78;4993904;28;20265;-76
2023/08/21 10:11:54;;;;;;;5.55;4.38;;;;;;;33.49;32.22;94870.84;4994561;28;20234;-79
2023/08/21 10:14:24;;;;;;;5.57;4.43;;;;;;;33.60;31.38;94862.75;4993906;28;20337;-77
2023/08/21 10:16:53;;;;;;;12.43;4.75;;;;;;;33.25;32.18;94870.75;4994223;28;20245;-78
2023/08/21 10:19:20;;;;;;;6.28;4.68;;;;;;;33.49;31.93;94874.44;4994427;28;20214;-78
2023/08/21 10:21:49;;;;;;;6.13;4.70;;;;;;;32.95;32.76;94869.63;4994486;28;20221;-79
2023/08/21 10:24:29;;;;;;;7.05;4.55;;;;;;;32.62;32.19;94863.03;4994509;28;20405;-77
2023/08/21 10:26:59;;;;;;;10.02;5.43;;;;;;;32.59;31.84;94861.13;4994582;28;20201;-77
2023/08/21 10:29:31;;;;;;;5.57;4.22;;;;;;;32.60;33.04;94857.09;4993399;28;20220;-77
2023/08/21 10:32:02;;;;;;;8.98;4.70;;;;;;;32.40;32.18;94863.13;4993927;28;20585;-78
2023/08/21 10:34:34;;;;;;;5.82;4.50;;;;;;;32.56;32.52;94848.03;4993764;28;20209;-77
2023/08/21 10:37:07;;;;;;;5.32;4.45;;;;;;;32.37;32.86;94848.03;4993834;28;20268;-78
2023/08/21 10:39:37;;;;;;;6.15;4.47;;;;;;;32.62;32.93;94846.19;4993535;28;20249;-79
2023/08/21 10:42:07;;;;;;;9.63;4.63;;;;;;;32.65;31.75;94842.47;4993851;28;20213;-78
2023/08/21 10:44:51;;;;;;;5.00;4.50;;;;;;;32.82;31.57;94844.50;4993802;28;20225;-79
2023/08/21 10:47:19;;;;;;;4.78;4.28;;;;;;;32.89;31.62;94826.59;4994209;28;20213;-77
2023/08/21 10:49:47;;;;;;;4.93;4.43;;;;;;;33.08;31.28;94836.53;4994026;28;20246;-78
2023/08/21 10:52:15;;;;;;;5.25;4.70;;;;;;;33.39;31.37;94827.19;4994028;28;20567;-77
2023/08/21 10:54:46;;;;;;;6.20;4.40;;;;;;;33.32;31.74;94825.50;4993392;28;20210;-77
2023/08/21 10:57:13;;;;;;;5.43;4.30;;;;;;;33.86;31.32;94833.03;4993796;28;20652;-78
2023/08/21 10:59:50;;;;;;;8.07;4.72;;;;;;;33.76;31.46;94825.84;4993568;28;20621;-77
2023/08/21 11:02:17;;;;;;;9.75;4.50;;;;;;;32.84;32.18;94830.00;4990850;28;20288;-79
2023/08/21 11:04:45;;;;;;;6.22;4.60;;;;;;;32.78;31.32;94820.66;4993516;28;20594;-77
2023/08/21 11:07:12;;;;;;;5.50;3.75;;;;;;;32.97;30.10;94827.81;4993512;28;20241;-76
2023/08/21 11:09:40;;;;;;;6.93;4.25;;;;;;;32.54;31.29;94825.28;4993498;28;20237;-76
2023/08/21 11:12:09;;;;;;;6.60;4.40;;;;;;;32.56;32.62;94819.97;4993108;28;20340;-78
2023/08/21 11:14:36;;;;;;;5.57;3.97;;;;;;;32.39;31.70;94809.03;4992384;28;20663;-77
2023/08/21 11:17:04;;;;;;;6.45;4.40;;;;;;;32.13;31.77;94813.31;4993004;28;20242;-78
2023/08/21 11:19:32;;;;;;;8.10;4.40;;;;;;;32.13;31.93;94811.28;4992948;28;20214;-77
2023/08/21 11:22:03;;;;;;;5.57;4.60;;;;;;;32.32;32.24;94811.38;4992720;28;20244;-78
2023/08/21 11:24:32;;;;;;;9.18;4.20;;;;;;;32.62;32.25;94806.91;4992778;28;20296;-78
2023/08/21 11:26:59;;;;;;;7.57;4.53;;;;;;;32.88;32.10;94808.19;4980121;28;20293;-78
2023/08/21 11:29:26;;;;;;;4.60;4.20;;;;;;;32.70;31.96;94814.53;4993186;28;20644;-78
2023/08/21 11:31:54;;;;;;;7.28;4.32;;;;;;;32.71;31.98;94815.31;4992818;28;20236;-77
2023/08/21 11:34:23;;;;;;;7.60;4.30;;;;;;;32.71;32.08;94804.09;4993351;28;20679;-78